DEN weather

Denver International Airport
Denver, Colorado, United States

Public forecast

Using degrees Fahrenheit for public forecast. Weather courtesy of forecast.io.

METAR (pilot weather report)

Retrieved 2017/09/25 04:53 UTC (24 minutes ago):

KDEN 250453Z 36006KT 2SM BR OVC003 08/07 A3005 RMK AO2 SFC VIS 4 DZE50 CIG 002V007 SLP151 P0001 T00830072

TAF (pilot weather forecast)

Forecast is more than 12 hours old.

Retrieved 2017/09/24 00:45 UTC (1 day ago):

TAF KDEN 242341Z 2500/2606 06012KT 5SM BR BKN008 OVC015 TEMPO 2500/2504 3SM -SHRA BR OVC008 FM250400 04007KT 4SM BR OVC006 FM251100 01006KT 2SM BR OVC004 FM251900 07007KT P6SM BKN015 FM252300 10006KT P6SM VCSH BKN020